createdAt,value
2022-11-20T00:01:34.322Z,-3.54
2022-11-20T00:04:14.163Z,-3.54
2022-11-20T00:07:01.240Z,-3.58
2022-11-20T00:09:41.167Z,-3.61
2022-11-20T00:12:35.159Z,-3.65
2022-11-20T00:15:22.168Z,-3.67
2022-11-20T00:18:02.168Z,-3.68
2022-11-20T00:20:56.193Z,-3.71
2022-11-20T00:23:43.198Z,-3.71
2022-11-20T00:26:20.241Z,-3.74
2022-11-20T00:29:08.175Z,-3.77
2022-11-20T00:31:42.275Z,-3.78
2022-11-20T00:34:29.163Z,-3.80
2022-11-20T00:37:16.180Z,-3.81
2022-11-20T00:40:10.154Z,-3.80
2022-11-20T00:43:04.172Z,-3.80
2022-11-20T00:45:51.178Z,-3.80
2022-11-20T00:48:24.246Z,-3.78
2022-11-20T00:51:12.181Z,-3.78
2022-11-20T00:53:52.186Z,-3.75
2022-11-20T00:56:46.186Z,-3.67
2022-11-20T00:59:33.175Z,-3.62
2022-11-20T01:02:06.255Z,-3.65
2022-11-20T01:04:53.174Z,-3.66
2022-11-20T01:07:26.305Z,-3.65
2022-11-20T01:10:13.177Z,-3.62
2022-11-20T01:13:06.222Z,-3.61
2022-11-20T01:15:53.192Z,-3.62
2022-11-20T01:18:29.259Z,-3.70
2022-11-20T01:21:34.192Z,-3.70
2022-11-20T01:24:08.910Z,-3.64
2022-11-20T01:26:57.193Z,-3.62
2022-11-20T01:29:39.204Z,-3.63
2022-11-20T01:32:33.171Z,-3.66
2022-11-20T01:35:20.201Z,-3.65
2022-11-20T01:37:53.287Z,-3.65
2022-11-20T01:40:40.221Z,-3.62
2022-11-20T01:43:26.615Z,-3.60
2022-11-20T01:46:16.195Z,-3.59
2022-11-20T01:48:58.274Z,-3.61
2022-11-20T01:51:56.196Z,-3.60
2022-11-20T01:54:36.348Z,-3.59
2022-11-20T01:57:24.194Z,-3.52
2022-11-20T02:00:04.314Z,-3.54
2022-11-20T02:02:56.211Z,-3.53
2022-11-20T02:05:46.262Z,-3.52
2022-11-20T02:08:33.214Z,-3.49
2022-11-20T02:11:13.227Z,-3.41
2022-11-20T02:14:07.324Z,-3.39
2022-11-20T02:17:03.190Z,-3.39
2022-11-20T02:19:50.218Z,-3.38
2022-11-20T02:22:45.217Z,-3.36
2022-11-20T02:25:41.183Z,-3.35
2022-11-20T02:28:28.262Z,-3.39
2022-11-20T02:31:01.278Z,-3.39
2022-11-20T02:33:48.214Z,-3.44
2022-11-20T02:36:23.281Z,-3.43
2022-11-20T02:39:18.346Z,-3.44
2022-11-20T02:42:12.204Z,-3.46
2022-11-20T02:44:59.219Z,-3.46
2022-11-20T02:47:39.233Z,-3.45
2022-11-20T02:50:26.187Z,-3.42
2022-11-20T02:53:06.240Z,-3.46
2022-11-20T02:56:00.271Z,-3.45
2022-11-20T02:58:54.224Z,-3.44
2022-11-20T03:01:41.271Z,-3.46
2022-11-20T03:04:14.344Z,-3.49
2022-11-20T03:07:01.264Z,-3.51
2022-11-20T03:09:34.302Z,-3.56
2022-11-20T03:12:21.252Z,-3.57
2022-11-20T03:14:54.340Z,-3.53
2022-11-20T03:17:41.199Z,-3.52
2022-11-20T03:20:15.775Z,-3.55
2022-11-20T03:23:02.204Z,-3.57
2022-11-20T03:25:42.265Z,-3.59
2022-11-20T03:28:36.234Z,-3.67
2022-11-20T03:31:26.226Z,-3.73
2022-11-20T03:34:00.303Z,-3.76
2022-11-20T03:36:48.219Z,-3.81
2022-11-20T03:39:21.655Z,-3.80
2022-11-20T03:42:08.226Z,-3.83
2022-11-20T03:44:41.320Z,-3.85
2022-11-20T03:47:28.234Z,-3.87
2022-11-20T03:50:01.318Z,-3.87
2022-11-20T03:52:48.218Z,-3.85
2022-11-20T03:55:21.320Z,-3.88
2022-11-20T03:58:08.250Z,-3.91
2022-11-20T04:00:41.354Z,-3.91
2022-11-20T04:03:28.259Z,-3.88
2022-11-20T04:06:01.304Z,-3.89
2022-11-20T04:08:53.597Z,-3.90
2022-11-20T04:11:30.306Z,-3.92
2022-11-20T04:14:24.219Z,-3.93
2022-11-20T04:16:57.342Z,-3.92
2022-11-20T04:19:44.241Z,-3.95
2022-11-20T04:22:17.302Z,-3.97
2022-11-20T04:25:04.245Z,-3.98
2022-11-20T04:27:45.239Z,-3.98
2022-11-20T04:30:32.262Z,-4.00
2022-11-20T04:33:05.313Z,-4.01
2022-11-20T04:35:55.254Z,-4.03
2022-11-20T04:38:28.346Z,-4.04
2022-11-20T04:41:18.247Z,-3.97
2022-11-20T04:43:59.983Z,-3.92
2022-11-20T04:46:49.257Z,-3.92
2022-11-20T04:49:22.642Z,-3.93
2022-11-20T04:52:09.250Z,-3.93
2022-11-20T04:54:42.315Z,-3.94
2022-11-20T04:57:29.254Z,-3.90
2022-11-20T05:00:02.324Z,-3.91
2022-11-20T05:02:49.284Z,-3.91
2022-11-20T05:05:22.336Z,-3.92
2022-11-20T05:08:09.252Z,-3.91
2022-11-20T05:10:42.329Z,-3.91
2022-11-20T05:13:29.268Z,-3.93
2022-11-20T05:16:02.336Z,-3.94
2022-11-20T05:18:49.243Z,-3.95
2022-11-20T05:21:23.368Z,-3.95
2022-11-20T05:24:10.262Z,-3.93
2022-11-20T05:26:50.267Z,-3.91
2022-11-20T05:29:37.270Z,-3.93
2022-11-20T05:32:10.795Z,-3.97
2022-11-20T05:34:57.292Z,-3.94
2022-11-20T05:37:30.342Z,-3.94
2022-11-20T05:40:24.299Z,-3.96
2022-11-20T05:43:18.295Z,-3.95
2022-11-20T05:46:12.246Z,-3.96
2022-11-20T05:49:06.335Z,-4.00
2022-11-20T05:51:53.259Z,-4.01
2022-11-20T05:54:26.382Z,-4.02
2022-11-20T05:57:13.329Z,-4.04
2022-11-20T05:59:46.376Z,-4.01
2022-11-20T06:02:33.308Z,-4.01
2022-11-20T06:05:06.350Z,-3.99
2022-11-20T06:07:53.245Z,-3.98
2022-11-20T06:10:33.277Z,-3.99
2022-11-20T06:13:20.269Z,-4.01
2022-11-20T06:15:58.347Z,-4.02
2022-11-20T06:18:45.282Z,-4.03
2022-11-20T06:21:21.413Z,-3.99
2022-11-20T06:24:08.277Z,-3.97
2022-11-20T06:26:41.410Z,-3.93
2022-11-20T06:29:33.641Z,-3.97
2022-11-20T06:32:07.343Z,-4.01
2022-11-20T06:34:54.290Z,-3.96
2022-11-20T06:37:34.300Z,-3.93
2022-11-20T06:40:28.292Z,-3.89
2022-11-20T06:43:25.286Z,-3.88
2022-11-20T06:46:19.304Z,-3.81
2022-11-20T06:49:13.296Z,-3.79
2022-11-20T06:52:00.331Z,-3.79
2022-11-20T06:54:40.310Z,-3.83
2022-11-20T06:57:27.302Z,-3.79
2022-11-20T07:00:00.405Z,-3.77
2022-11-20T07:02:47.299Z,-3.71
2022-11-20T07:05:20.376Z,-3.64
2022-11-20T07:08:07.305Z,-3.57
2022-11-20T07:10:48.286Z,-3.53
2022-11-20T07:13:43.313Z,-3.50
2022-11-20T07:16:30.300Z,-3.47
2022-11-20T07:19:03.454Z,-3.44
2022-11-20T07:21:50.304Z,-3.38
2022-11-20T07:24:23.357Z,-3.32
2022-11-20T07:27:10.322Z,-3.26
2022-11-20T07:29:43.397Z,-3.21
2022-11-20T07:32:30.303Z,-3.15
2022-11-20T07:35:10.305Z,-3.10
2022-11-20T07:38:04.366Z,-3.04
2022-11-20T07:40:58.327Z,-2.95
2022-11-20T07:43:45.293Z,-2.88
2022-11-20T07:46:18.385Z,-2.80
2022-11-20T07:49:05.296Z,-2.72
2022-11-20T07:51:38.386Z,-2.70
2022-11-20T07:54:25.318Z,-2.62
2022-11-20T07:57:05.302Z,-2.53
2022-11-20T07:59:53.306Z,-2.46
2022-11-20T08:02:33.305Z,-2.44
2022-11-20T08:05:20.377Z,-2.37
2022-11-20T08:07:53.426Z,-2.30
2022-11-20T08:10:40.290Z,-2.23
2022-11-20T08:13:38.315Z,-2.19
2022-11-20T08:16:32.309Z,-2.16
2022-11-20T08:19:23.468Z,-2.17
2022-11-20T08:22:03.308Z,-2.14
2022-11-20T08:24:57.352Z,-2.16
2022-11-20T08:27:44.318Z,-2.11
2022-11-20T08:30:18.598Z,-2.05
2022-11-20T08:33:11.312Z,-1.98
2022-11-20T08:35:52.303Z,-1.99
2022-11-20T08:38:46.326Z,-2.05
2022-11-20T08:41:34.396Z,-2.11
2022-11-20T08:44:12.453Z,-2.16
2022-11-20T08:46:59.321Z,-2.12
2022-11-20T08:49:32.380Z,-2.07
2022-11-20T08:52:19.339Z,-2.01
2022-11-20T08:54:52.404Z,-1.95
2022-11-20T08:57:50.590Z,-1.89
2022-11-20T09:00:31.343Z,-1.83
2022-11-20T09:03:18.372Z,-1.70
2022-11-20T09:05:51.600Z,-1.60
2022-11-20T09:08:38.325Z,-1.47
2022-11-20T09:11:19.347Z,-1.35
2022-11-20T09:14:13.324Z,-1.23
2022-11-20T09:17:07.353Z,-1.12
2022-11-20T09:20:01.335Z,-1.00
2022-11-20T09:22:48.368Z,-0.92
2022-11-20T09:25:21.405Z,-0.89
2022-11-20T09:28:08.316Z,-0.86
2022-11-20T09:30:48.354Z,-0.75
2022-11-20T09:33:42.335Z,-0.66
2022-11-20T09:36:29.358Z,-0.59
2022-11-20T09:39:02.448Z,-0.52
2022-11-20T09:41:58.341Z,-0.45
2022-11-20T09:44:40.516Z,-0.36
2022-11-20T09:47:36.317Z,-0.29
2022-11-20T09:50:39.495Z,-0.27
2022-11-20T09:53:54.345Z,-0.23
2022-11-20T09:56:44.371Z,-0.21
2022-11-20T09:59:50.434Z,-0.17
2022-11-20T10:02:47.370Z,-0.15
2022-11-20T10:05:35.365Z,-0.13
2022-11-20T10:08:55.355Z,-0.12
2022-11-20T10:12:09.350Z,-0.13
2022-11-20T10:15:34.373Z,-0.14
2022-11-20T10:18:56.386Z,-0.14
2022-11-20T10:22:18.352Z,-0.14
2022-11-20T10:25:25.372Z,-0.11
2022-11-20T10:28:30.491Z,-0.02
2022-11-20T10:31:29.368Z,0.08
2022-11-20T10:34:26.367Z,0.14
2022-11-20T10:37:17.487Z,0.17
2022-11-20T10:40:13.352Z,0.20
2022-11-20T10:42:57.442Z,0.24
2022-11-20T10:45:53.363Z,0.29
2022-11-20T10:48:34.437Z,0.33
2022-11-20T10:51:30.386Z,0.36
2022-11-20T10:54:51.408Z,0.41
2022-11-20T10:58:09.456Z,0.50
2022-11-20T11:00:56.474Z,0.56
2022-11-20T11:03:38.520Z,0.62
2022-11-20T11:06:34.394Z,0.66
2022-11-20T11:09:19.711Z,0.68
2022-11-20T11:12:07.342Z,0.72
2022-11-20T11:14:50.567Z,0.75
2022-11-20T11:17:39.398Z,0.77
2022-11-20T11:20:18.536Z,0.79
2022-11-20T11:23:07.377Z,0.80
2022-11-20T11:25:43.450Z,0.82
2022-11-20T11:28:33.369Z,0.83
2022-11-20T11:31:06.486Z,0.83
2022-11-20T11:33:53.393Z,0.82
2022-11-20T11:36:34.436Z,0.80
2022-11-20T11:39:34.397Z,0.78
2022-11-20T11:42:33.382Z,0.75
2022-11-20T11:45:24.372Z,0.70
2022-11-20T11:48:06.411Z,0.67
2022-11-20T11:51:04.391Z,0.65
2022-11-20T11:53:54.407Z,0.63
2022-11-20T11:56:30.545Z,0.63
2022-11-20T11:59:24.746Z,0.62
2022-11-20T12:02:19.300Z,0.65
2022-11-20T12:05:08.368Z,0.66
2022-11-20T12:08:02.471Z,0.69
2022-11-20T12:11:10.403Z,0.74
2022-11-20T12:14:21.388Z,0.79
2022-11-20T12:16:56.619Z,0.83
2022-11-20T12:19:43.392Z,0.90
2022-11-20T12:22:38.449Z,0.94
2022-11-20T12:25:31.446Z,0.97
2022-11-20T12:28:23.466Z,1.02
2022-11-20T12:31:39.448Z,1.06
2022-11-20T12:34:38.416Z,1.09
2022-11-20T12:37:50.439Z,1.12
2022-11-20T12:41:04.392Z,1.16
2022-11-20T12:44:43.417Z,1.17
2022-11-20T12:48:22.398Z,1.18
2022-11-20T12:51:24.418Z,1.20
2022-11-20T12:54:25.471Z,1.19
2022-11-20T12:57:56.424Z,1.20
2022-11-20T13:00:31.483Z,1.21
2022-11-20T13:04:00.420Z,1.21
2022-11-20T13:06:40.404Z,1.22
2022-11-20T13:09:37.403Z,1.20
2022-11-20T13:12:43.412Z,1.19
2022-11-20T13:15:47.485Z,1.16
2022-11-20T13:18:35.412Z,1.13
2022-11-20T13:21:15.411Z,1.10
2022-11-20T13:24:18.433Z,1.07
2022-11-20T13:27:15.409Z,1.03
2022-11-20T13:29:59.416Z,0.97
2022-11-20T13:32:56.415Z,0.91
2022-11-20T13:35:41.412Z,0.88
2022-11-20T13:38:33.708Z,0.81
2022-11-20T13:41:28.345Z,0.76
2022-11-20T13:44:18.433Z,0.72
2022-11-20T13:46:53.492Z,0.66
2022-11-20T13:49:52.437Z,0.63
2022-11-20T13:52:38.444Z,0.60
2022-11-20T13:55:35.408Z,0.56
2022-11-20T13:58:41.428Z,0.52
2022-11-20T14:01:31.484Z,0.49
2022-11-20T14:04:12.431Z,0.46
2022-11-20T14:07:06.455Z,0.44
2022-11-20T14:10:01.421Z,0.40
2022-11-20T14:12:40.492Z,0.36
2022-11-20T14:15:34.449Z,0.32
2022-11-20T14:18:25.609Z,0.29
2022-11-20T14:21:12.513Z,0.26
2022-11-20T14:23:45.513Z,0.22
2022-11-20T14:26:32.449Z,0.18
2022-11-20T14:29:05.519Z,0.14
2022-11-20T14:31:54.647Z,0.12
2022-11-20T14:34:32.519Z,0.10
2022-11-20T14:37:25.440Z,0.07
2022-11-20T14:40:03.789Z,0.03
2022-11-20T14:42:51.450Z,-0.04
2022-11-20T14:45:32.443Z,-0.07
2022-11-20T14:48:26.483Z,-0.11
2022-11-20T14:51:13.520Z,-0.15
2022-11-20T14:53:46.596Z,-0.18
2022-11-20T14:56:33.449Z,-0.21
2022-11-20T14:59:06.527Z,-0.24
2022-11-20T15:02:06.467Z,-0.27
2022-11-20T15:04:39.525Z,-0.29
2022-11-20T15:07:41.509Z,-0.35
2022-11-20T15:10:17.559Z,-0.40
2022-11-20T15:13:13.535Z,-0.45
2022-11-20T15:15:58.625Z,-0.49
2022-11-20T15:18:50.455Z,-0.50
2022-11-20T15:21:27.537Z,-0.50
2022-11-20T15:24:16.464Z,-0.51
2022-11-20T15:26:50.532Z,-0.52
2022-11-20T15:29:37.449Z,-0.56
2022-11-20T15:32:17.463Z,-0.59
2022-11-20T15:35:04.464Z,-0.61
2022-11-20T15:37:44.472Z,-0.65
2022-11-20T15:40:38.464Z,-0.68
2022-11-20T15:43:32.458Z,-0.74
2022-11-20T15:46:23.451Z,-0.78
2022-11-20T15:49:02.716Z,-0.80
2022-11-20T15:51:51.455Z,-0.86
2022-11-20T15:54:29.533Z,-0.90
2022-11-20T15:57:16.490Z,-0.91
2022-11-20T15:59:49.576Z,-0.93
2022-11-20T16:02:36.476Z,-0.95
2022-11-20T16:05:09.579Z,-0.98
2022-11-20T16:07:57.480Z,-1.02
2022-11-20T16:10:37.459Z,-1.05
2022-11-20T16:13:50.475Z,-1.06
2022-11-20T16:16:48.455Z,-1.08
2022-11-20T16:19:35.504Z,-1.10
2022-11-20T16:22:15.468Z,-1.13
2022-11-20T16:25:09.490Z,-1.15
2022-11-20T16:27:56.476Z,-1.15
2022-11-20T16:30:36.463Z,-1.16
2022-11-20T16:33:27.497Z,-1.17
2022-11-20T16:36:08.575Z,-1.16
2022-11-20T16:39:00.512Z,-1.15
2022-11-20T16:41:35.676Z,-1.16
2022-11-20T16:44:22.752Z,-1.16
2022-11-20T16:46:56.565Z,-1.13
2022-11-20T16:49:43.485Z,-1.13
2022-11-20T16:52:23.523Z,-1.13
2022-11-20T16:55:17.499Z,-1.13
2022-11-20T16:58:04.483Z,-1.13
2022-11-20T17:00:50.007Z,-1.14
2022-11-20T17:03:31.478Z,-1.23
2022-11-20T17:06:25.492Z,-1.24
2022-11-20T17:09:00.626Z,-1.24
2022-11-20T17:11:47.506Z,-1.26
2022-11-20T17:14:27.494Z,-1.27
2022-11-20T17:17:14.486Z,-1.32
2022-11-20T17:19:54.563Z,-1.34
2022-11-20T17:22:48.509Z,-1.37
2022-11-20T17:25:35.511Z,-1.41
2022-11-20T17:28:08.635Z,-1.45
2022-11-20T17:30:55.522Z,-1.50
2022-11-20T17:33:28.601Z,-1.54
2022-11-20T17:36:17.484Z,-1.54
2022-11-20T17:38:52.032Z,-1.57
2022-11-20T17:41:45.508Z,-1.60
2022-11-20T17:44:39.536Z,-1.62
2022-11-20T17:47:26.513Z,-1.65
2022-11-20T17:50:06.497Z,-1.68
2022-11-20T17:53:00.513Z,-1.71
2022-11-20T17:56:05.500Z,-1.74
2022-11-20T17:58:38.595Z,-1.77
2022-11-20T18:01:25.522Z,-1.80
2022-11-20T18:03:58.591Z,-1.81
2022-11-20T18:06:45.513Z,-1.86
2022-11-20T18:09:19.685Z,-1.86
2022-11-20T18:12:06.503Z,-1.87
2022-11-20T18:14:39.605Z,-1.89
2022-11-20T18:17:26.536Z,-1.91
2022-11-20T18:23:06.529Z,-1.93
2022-11-20T18:25:39.936Z,-1.93
2022-11-20T18:28:26.495Z,-1.96
2022-11-20T18:31:06.544Z,-1.98
2022-11-20T18:34:01.503Z,-2.01
2022-11-20T18:36:49.521Z,-2.06
2022-11-20T18:39:23.685Z,-2.07
2022-11-20T18:42:29.537Z,-2.04
2022-11-20T18:45:04.422Z,-2.06
2022-11-20T18:47:51.523Z,-2.06
2022-11-20T18:50:24.597Z,-2.06
2022-11-20T18:53:11.524Z,-2.07
2022-11-20T18:55:51.524Z,-2.10
2022-11-20T18:58:47.536Z,-2.12
2022-11-20T19:01:41.525Z,-2.12
2022-11-20T19:04:29.519Z,-2.16
2022-11-20T19:07:03.129Z,-2.20
2022-11-20T19:09:51.537Z,-2.20
2022-11-20T19:12:25.608Z,-2.21
2022-11-20T19:15:12.569Z,-2.21
2022-11-20T19:17:45.602Z,-2.23
2022-11-20T19:20:33.516Z,-2.27
2022-11-20T19:23:13.555Z,-2.28
2022-11-20T19:26:05.588Z,-2.28
2022-11-20T19:28:39.719Z,-2.30
2022-11-20T19:31:29.545Z,-2.34
2022-11-20T19:34:04.635Z,-2.38
2022-11-20T19:36:51.545Z,-2.39
2022-11-20T19:39:24.814Z,-2.39
2022-11-20T19:42:11.715Z,-2.39
2022-11-20T19:44:44.609Z,-2.42
2022-11-20T19:48:00.607Z,-2.43
2022-11-20T19:50:24.624Z,-2.45
2022-11-20T19:53:11.569Z,-2.44
2022-11-20T19:55:51.681Z,-2.48
2022-11-20T19:58:45.549Z,-2.51
2022-11-20T20:01:41.568Z,-2.56
2022-11-20T20:04:28.550Z,-2.59
2022-11-20T20:07:03.959Z,-2.64
2022-11-20T20:09:50.569Z,-2.65
2022-11-20T20:12:23.628Z,-2.66
2022-11-20T20:15:11.550Z,-2.64
2022-11-20T20:17:44.616Z,-2.65
2022-11-20T20:20:32.590Z,-2.64
2022-11-20T20:23:07.420Z,-2.66
2022-11-20T20:25:54.547Z,-2.69
2022-11-20T20:28:34.552Z,-2.71
2022-11-20T20:31:24.542Z,-2.71
2022-11-20T20:33:57.687Z,-2.73
2022-11-20T20:36:44.552Z,-2.78
2022-11-20T20:39:17.776Z,-2.80
2022-11-20T20:42:04.568Z,-2.83
2022-11-20T20:45:16.570Z,-2.85
2022-11-20T20:48:10.588Z,-2.85
2022-11-20T20:51:05.580Z,-2.88
2022-11-20T20:53:38.650Z,-2.90
2022-11-20T20:56:25.586Z,-2.94
2022-11-20T20:58:58.706Z,-2.97
2022-11-20T21:01:45.607Z,-3.02
2022-11-20T21:04:18.635Z,-3.04
2022-11-20T21:07:05.600Z,-3.05
2022-11-20T21:09:38.638Z,-3.06
2022-11-20T21:12:25.581Z,-3.05
2022-11-20T21:14:58.701Z,-3.08
2022-11-20T21:17:45.574Z,-3.10
2022-11-20T21:20:37.621Z,-3.13
2022-11-20T21:23:25.565Z,-3.11
2022-11-20T21:26:05.590Z,-3.11
2022-11-20T21:28:59.622Z,-3.08
2022-11-20T21:31:46.718Z,-3.10
2022-11-20T21:34:27.580Z,-3.10
2022-11-20T21:37:14.569Z,-3.13
2022-11-20T21:39:51.957Z,-3.15
2022-11-20T21:42:38.574Z,-3.18
2022-11-20T21:45:11.687Z,-3.22
2022-11-20T21:47:58.585Z,-3.22
2022-11-20T21:50:38.569Z,-3.23
2022-11-20T21:53:25.592Z,-3.27
2022-11-20T21:56:10.579Z,-3.30
2022-11-20T21:59:05.609Z,-3.31
2022-11-20T22:01:59.625Z,-3.31
2022-11-20T22:04:46.598Z,-3.37
2022-11-20T22:07:19.735Z,-3.39
2022-11-20T22:10:06.601Z,-3.41
2022-11-20T22:12:39.686Z,-3.42
2022-11-20T22:15:53.494Z,-3.46
2022-11-20T22:18:22.540Z,-3.51
2022-11-20T22:21:15.593Z,-3.54
2022-11-20T22:23:48.726Z,-3.56
2022-11-20T22:26:40.546Z,-3.57
2022-11-20T22:29:14.818Z,-3.60
2022-11-20T22:32:01.596Z,-3.60
2022-11-20T22:34:34.675Z,-3.63
2022-11-20T22:37:21.598Z,-3.65
2022-11-20T22:40:01.587Z,-3.67
2022-11-20T22:42:58.615Z,-3.65
2022-11-20T22:45:52.615Z,-3.67
2022-11-20T22:48:51.592Z,-3.68
2022-11-20T22:51:40.620Z,-3.71
2022-11-20T22:54:14.770Z,-3.76
2022-11-20T22:57:01.625Z,-3.78
2022-11-20T22:59:41.624Z,-3.79
2022-11-20T23:02:35.548Z,-3.81
2022-11-20T23:05:29.638Z,-3.79
2022-11-20T23:08:16.608Z,-3.80
2022-11-20T23:10:49.695Z,-3.84
2022-11-20T23:13:37.597Z,-3.85
2022-11-20T23:16:13.692Z,-3.83
2022-11-20T23:19:02.620Z,-3.85
2022-11-20T23:21:35.798Z,-3.90
2022-11-20T23:24:22.598Z,-3.96
2022-11-20T23:26:55.692Z,-3.99
2022-11-20T23:29:42.635Z,-3.99
2022-11-20T23:32:15.691Z,-3.98
2022-11-20T23:35:02.601Z,-3.97
2022-11-20T23:37:35.808Z,-3.99
2022-11-20T23:40:29.625Z,-4.00
2022-11-20T23:43:21.618Z,-4.05
2022-11-20T23:46:13.716Z,-4.06
2022-11-20T23:49:09.634Z,-4.03
2022-11-20T23:51:56.606Z,-4.05
2022-11-20T23:54:36.603Z,-4.08
2022-11-20T23:57:23.607Z,-4.11
